createdAt,value
2018-06-29T00:00:04.607Z,20.53
2018-06-29T00:01:04.765Z,20.58
2018-06-29T00:02:04.923Z,20.54
2018-06-29T00:03:05.080Z,20.49
2018-06-29T00:04:05.241Z,20.62
2018-06-29T00:05:05.399Z,20.54
2018-06-29T00:06:05.554Z,20.50
2018-06-29T00:07:05.710Z,20.47
2018-06-29T00:08:05.870Z,20.51
2018-06-29T00:09:06.029Z,20.56
2018-06-29T00:10:06.183Z,20.51
2018-06-29T00:11:06.341Z,20.46
2018-06-29T00:12:06.501Z,20.51
2018-06-29T00:13:06.659Z,20.50
2018-06-29T00:14:06.815Z,20.33
2018-06-29T00:15:06.973Z,20.39
2018-06-29T00:16:07.132Z,20.34
2018-06-29T00:17:07.294Z,20.23
2018-06-29T00:18:07.454Z,20.27
2018-06-29T00:19:07.607Z,20.20
2018-06-29T00:20:07.763Z,20.12
2018-06-29T00:21:07.921Z,20.10
2018-06-29T00:22:08.078Z,20.10
2018-06-29T00:23:08.237Z,20.13
2018-06-29T00:24:08.394Z,20.16
2018-06-29T00:25:08.551Z,20.13
2018-06-29T00:26:08.707Z,20.20
2018-06-29T00:27:08.867Z,19.98
2018-06-29T00:28:09.022Z,19.97
2018-06-29T00:29:09.191Z,19.98
2018-06-29T00:30:09.340Z,20.00
2018-06-29T00:31:09.499Z,20.00
2018-06-29T00:32:09.658Z,20.00
2018-06-29T00:33:09.814Z,19.97
2018-06-29T00:34:09.974Z,19.94
2018-06-29T00:35:10.130Z,19.94
2018-06-29T00:36:10.287Z,20.00
2018-06-29T00:37:10.443Z,19.94
2018-06-29T00:38:10.600Z,20.02
2018-06-29T00:39:10.761Z,20.00
2018-06-29T00:40:10.914Z,20.06
2018-06-29T00:41:11.075Z,20.02
2018-06-29T00:42:11.233Z,20.02
2018-06-29T00:43:11.388Z,20.06
2018-06-29T00:44:11.549Z,19.98
2018-06-29T00:45:11.714Z,20.05
2018-06-29T00:46:11.866Z,19.86
2018-06-29T00:47:12.023Z,19.86
2018-06-29T00:48:12.180Z,19.75
2018-06-29T00:49:12.335Z,19.66
2018-06-29T00:50:12.493Z,19.70
2018-06-29T00:51:12.648Z,19.69
2018-06-29T00:52:12.804Z,19.70
2018-06-29T00:53:12.962Z,19.70
2018-06-29T00:54:13.117Z,19.65
2018-06-29T00:55:13.315Z,19.70
2018-06-29T00:56:13.430Z,19.58
2018-06-29T00:57:13.586Z,19.38
2018-06-29T00:58:13.741Z,19.40
2018-06-29T00:59:13.908Z,19.36
2018-06-29T01:00:14.063Z,19.33
2018-06-29T01:01:14.221Z,19.42
2018-06-29T01:02:14.376Z,19.32
2018-06-29T01:03:14.531Z,19.31
2018-06-29T01:04:14.690Z,19.21
2018-06-29T01:05:14.845Z,19.28
2018-06-29T01:06:15.004Z,19.29
2018-06-29T01:07:15.160Z,19.36
2018-06-29T01:08:15.329Z,19.28
2018-06-29T01:09:15.474Z,19.39
2018-06-29T01:10:15.632Z,19.36
2018-06-29T01:11:15.788Z,19.42
2018-06-29T01:12:15.945Z,19.28
2018-06-29T01:13:16.102Z,19.38
2018-06-29T01:14:16.260Z,19.29
2018-06-29T01:15:16.416Z,19.20
2018-06-29T01:16:16.571Z,19.23
2018-06-29T01:17:16.729Z,19.23
2018-06-29T01:18:16.883Z,19.18
2018-06-29T01:19:17.040Z,19.08
2018-06-29T01:20:17.199Z,19.10
2018-06-29T01:21:17.352Z,19.01
2018-06-29T01:22:17.509Z,18.99
2018-06-29T01:23:17.669Z,19.17
2018-06-29T01:24:17.828Z,18.98
2018-06-29T01:25:17.982Z,19.02
2018-06-29T01:26:18.141Z,19.10
2018-06-29T01:27:18.298Z,19.01
2018-06-29T01:28:18.452Z,19.02
2018-06-29T01:29:18.609Z,18.98
2018-06-29T01:30:18.765Z,19.05
2018-06-29T01:31:18.923Z,19.01
2018-06-29T01:32:19.078Z,19.11
2018-06-29T01:33:19.234Z,19.13
2018-06-29T01:34:19.395Z,19.08
2018-06-29T01:35:19.551Z,19.14
2018-06-29T01:36:19.705Z,19.11
2018-06-29T01:37:19.868Z,19.06
2018-06-29T01:38:20.024Z,19.08
2018-06-29T01:39:20.179Z,18.98
2018-06-29T01:40:20.336Z,18.92
2018-06-29T01:41:20.544Z,18.94
2018-06-29T01:42:20.650Z,18.94
2018-06-29T01:43:20.810Z,18.94
2018-06-29T01:44:20.962Z,18.97
2018-06-29T01:45:21.122Z,18.94
2018-06-29T01:46:21.281Z,18.95
2018-06-29T01:47:21.437Z,19.02
2018-06-29T01:48:21.590Z,18.99
2018-06-29T01:49:21.747Z,19.01
2018-06-29T01:50:21.903Z,19.01
2018-06-29T01:51:22.061Z,19.02
2018-06-29T01:52:22.217Z,19.01
2018-06-29T01:53:22.375Z,19.10
2018-06-29T01:54:22.529Z,19.11
2018-06-29T01:55:22.685Z,19.02
2018-06-29T01:56:22.842Z,19.02
2018-06-29T01:57:22.995Z,19.11
2018-06-29T01:58:23.154Z,19.13
2018-06-29T01:59:23.309Z,19.06
2018-06-29T02:00:23.470Z,19.08
2018-06-29T02:01:23.623Z,19.13
2018-06-29T02:02:23.781Z,19.17
2018-06-29T02:03:23.939Z,19.23
2018-06-29T02:04:24.093Z,19.25
2018-06-29T02:05:24.251Z,19.33
2018-06-29T02:06:24.407Z,19.31
2018-06-29T02:07:24.565Z,19.29
2018-06-29T02:08:24.722Z,19.20
2018-06-29T02:09:24.875Z,19.29
2018-06-29T02:10:25.033Z,19.17
2018-06-29T02:11:25.188Z,19.20
2018-06-29T02:12:25.343Z,19.13
2018-06-29T02:13:25.500Z,19.10
2018-06-29T02:14:25.656Z,19.15
2018-06-29T02:15:25.811Z,18.98
2018-06-29T02:16:25.971Z,18.99
2018-06-29T02:17:26.128Z,19.01
2018-06-29T02:18:26.283Z,18.92
2018-06-29T02:19:26.440Z,18.95
2018-06-29T02:20:26.613Z,19.10
2018-06-29T02:21:26.757Z,18.95
2018-06-29T02:22:26.912Z,19.02
2018-06-29T02:23:27.070Z,18.99
2018-06-29T02:24:27.228Z,19.10
2018-06-29T02:25:27.386Z,19.08
2018-06-29T02:26:27.540Z,19.06
2018-06-29T02:27:27.696Z,19.11
2018-06-29T02:28:27.852Z,19.11
2018-06-29T02:29:28.007Z,19.14
2018-06-29T02:30:28.196Z,19.14
2018-06-29T02:31:28.322Z,19.21
2018-06-29T02:32:28.478Z,19.20
2018-06-29T02:33:28.635Z,19.28
2018-06-29T02:34:28.792Z,19.35
2018-06-29T02:35:28.945Z,19.36
2018-06-29T02:36:29.105Z,19.24
2018-06-29T02:37:29.256Z,19.40
2018-06-29T02:38:29.418Z,19.40
2018-06-29T02:39:29.568Z,19.35
2018-06-29T02:40:29.725Z,19.42
2018-06-29T02:41:29.883Z,19.32
2018-06-29T02:42:30.039Z,19.42
2018-06-29T02:43:30.194Z,19.48
2018-06-29T02:44:30.350Z,19.40
2018-06-29T02:45:30.506Z,19.50
2018-06-29T02:46:30.668Z,19.47
2018-06-29T02:47:30.828Z,19.46
2018-06-29T02:48:30.979Z,19.42
2018-06-29T02:49:31.133Z,19.43
2018-06-29T02:50:31.289Z,19.40
2018-06-29T02:51:31.447Z,19.47
2018-06-29T02:52:31.625Z,19.51
2018-06-29T02:53:31.755Z,19.43
2018-06-29T02:54:31.912Z,19.46
2018-06-29T02:55:32.078Z,19.55
2018-06-29T02:56:32.239Z,19.50
2018-06-29T02:57:32.511Z,19.48
2018-06-29T02:58:32.581Z,19.54
2018-06-29T02:59:32.737Z,19.54
2018-06-29T03:00:32.893Z,19.47
2018-06-29T03:01:33.049Z,19.39
2018-06-29T03:02:33.206Z,19.47
2018-06-29T03:03:33.360Z,19.36
2018-06-29T03:04:33.519Z,19.39
2018-06-29T03:05:33.673Z,19.31
2018-06-29T03:06:33.827Z,19.39
2018-06-29T03:07:33.987Z,19.40
2018-06-29T03:08:34.147Z,19.42
2018-06-29T03:09:34.300Z,19.33
2018-06-29T03:10:34.457Z,19.31
2018-06-29T03:11:34.615Z,19.47
2018-06-29T03:12:34.771Z,19.43
2018-06-29T03:13:34.930Z,19.47
2018-06-29T03:14:35.091Z,19.47
2018-06-29T03:15:35.241Z,19.42
2018-06-29T03:16:35.399Z,19.24
2018-06-29T03:17:35.557Z,19.24
2018-06-29T03:18:35.713Z,19.31
2018-06-29T03:19:35.870Z,19.29
2018-06-29T03:20:36.029Z,19.17
2018-06-29T03:21:36.184Z,19.17
2018-06-29T03:22:36.341Z,19.29
2018-06-29T03:23:36.498Z,19.20
2018-06-29T03:24:36.656Z,19.23
2018-06-29T03:25:36.808Z,19.21
2018-06-29T03:26:36.968Z,19.21
2018-06-29T03:27:37.125Z,19.20
2018-06-29T03:28:37.279Z,19.29
2018-06-29T03:29:37.437Z,19.24
2018-06-29T03:30:37.594Z,19.17
2018-06-29T03:31:37.751Z,19.06
2018-06-29T03:32:37.911Z,19.14
2018-06-29T03:33:38.064Z,19.29
2018-06-29T03:34:38.224Z,19.31
2018-06-29T03:35:38.381Z,19.39
2018-06-29T03:36:38.535Z,19.31
2018-06-29T03:37:38.694Z,19.39
2018-06-29T03:38:38.852Z,19.33
2018-06-29T03:39:39.010Z,19.39
2018-06-29T03:40:39.295Z,19.36
2018-06-29T03:41:39.324Z,19.40
2018-06-29T03:42:39.484Z,19.33
2018-06-29T03:43:39.650Z,19.25
2018-06-29T03:44:39.802Z,19.33
2018-06-29T03:45:39.957Z,19.21
2018-06-29T03:46:40.114Z,19.28
2018-06-29T03:47:40.274Z,19.23
2018-06-29T03:48:40.427Z,19.46
2018-06-29T03:49:40.585Z,19.29
2018-06-29T03:50:40.744Z,19.38
2018-06-29T03:51:40.898Z,19.32
2018-06-29T03:52:41.061Z,19.50
2018-06-29T03:53:41.212Z,19.42
2018-06-29T03:54:41.369Z,19.40
2018-06-29T03:55:41.527Z,19.43
2018-06-29T03:56:41.685Z,19.55
2018-06-29T03:57:41.843Z,19.57
2018-06-29T03:58:42.001Z,19.61
2018-06-29T03:59:42.158Z,19.55
2018-06-29T04:00:42.312Z,19.73
2018-06-29T04:01:42.472Z,19.61
2018-06-29T04:02:42.628Z,19.70
2018-06-29T04:03:42.785Z,19.70
2018-06-29T04:04:42.942Z,19.70
2018-06-29T04:05:43.109Z,19.80
2018-06-29T04:06:43.266Z,19.76
2018-06-29T04:07:43.424Z,19.83
2018-06-29T04:08:43.584Z,19.78
2018-06-29T04:09:43.741Z,19.84
2018-06-29T04:10:43.898Z,19.93
2018-06-29T04:11:44.075Z,19.87
2018-06-29T04:12:44.203Z,19.70
2018-06-29T04:13:44.361Z,19.57
2018-06-29T04:14:44.517Z,19.60
2018-06-29T04:15:44.675Z,19.57
2018-06-29T04:16:44.832Z,19.60
2018-06-29T04:17:44.989Z,19.54
2018-06-29T04:18:45.149Z,19.58
2018-06-29T04:19:45.305Z,19.50
2018-06-29T04:20:45.464Z,19.61
2018-06-29T04:21:45.619Z,19.60
2018-06-29T04:22:45.779Z,19.40
2018-06-29T04:23:45.934Z,19.36
2018-06-29T04:24:46.091Z,19.29
2018-06-29T04:25:46.245Z,19.33
2018-06-29T04:26:46.401Z,19.33
2018-06-29T04:27:46.557Z,19.35
2018-06-29T04:28:46.715Z,19.24
2018-06-29T04:29:46.870Z,19.38
2018-06-29T04:30:47.025Z,19.36
2018-06-29T04:31:47.179Z,19.28
2018-06-29T04:32:47.341Z,19.25
2018-06-29T04:33:47.493Z,19.33
2018-06-29T04:34:47.649Z,19.39
2018-06-29T04:35:47.809Z,19.46
2018-06-29T04:36:47.965Z,19.40
2018-06-29T04:37:48.121Z,19.35
2018-06-29T04:38:48.269Z,19.55
2018-06-29T04:39:48.422Z,19.73
2018-06-29T04:40:48.579Z,19.84
2018-06-29T04:41:48.735Z,19.86
2018-06-29T04:42:48.918Z,19.91
2018-06-29T04:43:49.041Z,19.84
2018-06-29T04:44:49.223Z,19.86
2018-06-29T04:45:49.357Z,19.76
2018-06-29T04:46:49.518Z,19.80
2018-06-29T04:47:49.674Z,19.87
2018-06-29T04:48:49.905Z,19.90
2018-06-29T04:49:49.980Z,20.02
2018-06-29T04:50:50.135Z,19.97
2018-06-29T04:51:50.290Z,20.09
2018-06-29T04:52:50.469Z,20.13
2018-06-29T04:53:50.598Z,20.27
2018-06-29T04:54:50.751Z,20.23
2018-06-29T04:55:50.906Z,20.24
2018-06-29T04:56:51.060Z,20.34
2018-06-29T04:57:51.225Z,20.42
2018-06-29T04:58:51.377Z,20.39
2018-06-29T04:59:51.536Z,20.39
2018-06-29T05:00:51.693Z,20.34
2018-06-29T05:01:51.848Z,20.46
2018-06-29T05:02:52.007Z,20.54
2018-06-29T05:03:52.164Z,20.53
2018-06-29T05:04:52.318Z,20.54
2018-06-29T05:05:52.478Z,20.53
2018-06-29T05:06:52.634Z,20.46
2018-06-29T05:07:52.790Z,20.47
2018-06-29T05:08:52.949Z,20.51
2018-06-29T05:09:53.106Z,20.59
2018-06-29T05:10:53.262Z,20.59
2018-06-29T05:11:53.420Z,20.68
2018-06-29T05:12:53.577Z,20.71
2018-06-29T05:13:53.735Z,20.68
2018-06-29T05:14:53.893Z,20.65
2018-06-29T05:15:54.050Z,20.84
2018-06-29T05:16:54.206Z,20.74
2018-06-29T05:17:54.362Z,20.79
2018-06-29T05:18:54.519Z,20.99
2018-06-29T05:19:54.678Z,20.90
2018-06-29T05:20:54.835Z,20.99
2018-06-29T05:21:54.995Z,21.04
2018-06-29T05:22:55.151Z,21.19
2018-06-29T05:23:55.307Z,21.24
2018-06-29T05:24:55.465Z,21.19
2018-06-29T05:25:55.624Z,21.36
2018-06-29T05:26:55.781Z,21.30
2018-06-29T05:27:55.941Z,21.36
2018-06-29T05:28:56.099Z,21.44
2018-06-29T05:29:56.257Z,21.32
2018-06-29T05:30:56.415Z,21.35
2018-06-29T05:31:56.578Z,21.32
2018-06-29T05:32:56.758Z,21.46
2018-06-29T05:33:56.914Z,21.45
2018-06-29T05:34:57.074Z,21.45
2018-06-29T05:35:57.304Z,21.42
2018-06-29T05:36:57.394Z,21.29
2018-06-29T05:37:57.551Z,21.35
2018-06-29T05:38:57.709Z,21.38
2018-06-29T05:39:57.866Z,21.45
2018-06-29T05:40:58.023Z,21.53
2018-06-29T05:41:58.183Z,21.50
2018-06-29T05:42:58.344Z,21.59
2018-06-29T05:43:58.504Z,21.63
2018-06-29T05:44:58.662Z,21.82
2018-06-29T05:45:58.823Z,21.69
2018-06-29T05:46:59.063Z,21.74
2018-06-29T05:47:59.138Z,21.82
2018-06-29T05:48:59.298Z,21.74
2018-06-29T05:49:59.455Z,21.78
2018-06-29T05:50:59.613Z,21.76
2018-06-29T05:51:59.772Z,21.76
2018-06-29T05:52:59.938Z,21.90
2018-06-29T05:54:00.092Z,21.97
2018-06-29T05:55:00.250Z,21.75
2018-06-29T05:56:00.411Z,21.95
2018-06-29T05:57:00.566Z,21.79
2018-06-29T05:58:00.808Z,21.81
2018-06-29T05:59:00.881Z,21.72
2018-06-29T06:00:01.041Z,21.83
2018-06-29T06:01:01.198Z,21.83
2018-06-29T06:02:01.372Z,21.90
2018-06-29T06:03:01.529Z,21.98
2018-06-29T06:04:01.727Z,22.01
2018-06-29T06:05:01.835Z,22.06
2018-06-29T06:06:01.993Z,22.01
2018-06-29T06:07:02.150Z,21.90
2018-06-29T06:08:02.308Z,21.76
2018-06-29T06:09:02.467Z,21.67
2018-06-29T06:10:02.661Z,21.76
2018-06-29T06:11:02.804Z,21.94
2018-06-29T06:12:02.945Z,21.98
2018-06-29T06:13:03.103Z,21.98
2018-06-29T06:14:03.261Z,22.20
2018-06-29T06:15:03.424Z,22.34
2018-06-29T06:16:03.587Z,22.37
2018-06-29T06:17:03.745Z,22.52
2018-06-29T06:18:03.902Z,22.60
2018-06-29T06:19:04.060Z,22.43
2018-06-29T06:20:04.217Z,22.47
2018-06-29T06:21:04.378Z,22.37
2018-06-29T06:22:04.626Z,22.23
2018-06-29T06:23:04.694Z,22.06
2018-06-29T06:24:04.853Z,22.12
2018-06-29T06:25:05.014Z,22.09
2018-06-29T06:26:05.169Z,22.16
2018-06-29T06:27:05.329Z,22.17
2018-06-29T06:28:05.486Z,22.27
2018-06-29T06:29:05.650Z,22.28
2018-06-29T06:30:05.805Z,22.32
2018-06-29T06:31:05.966Z,22.41
2018-06-29T06:32:06.122Z,22.46
2018-06-29T06:33:06.335Z,22.60
2018-06-29T06:34:06.442Z,22.72
2018-06-29T06:35:06.603Z,22.74
2018-06-29T06:36:06.760Z,22.77
2018-06-29T06:37:06.920Z,22.80
2018-06-29T06:38:07.074Z,22.74
2018-06-29T06:39:07.235Z,22.71
2018-06-29T06:40:07.394Z,22.78
2018-06-29T06:41:07.555Z,22.94
2018-06-29T06:42:07.704Z,22.94
2018-06-29T06:43:07.860Z,23.08
2018-06-29T06:44:08.017Z,23.12
2018-06-29T06:45:08.178Z,23.09
2018-06-29T06:46:08.338Z,23.12
2018-06-29T06:47:08.497Z,23.20
2018-06-29T06:48:08.655Z,23.19
2018-06-29T06:49:08.815Z,23.19
2018-06-29T06:50:08.972Z,23.26
2018-06-29T06:51:09.134Z,23.23
2018-06-29T06:52:09.296Z,23.32
2018-06-29T06:53:09.454Z,23.27
2018-06-29T06:54:09.612Z,23.17
2018-06-29T06:55:09.770Z,23.34
2018-06-29T06:56:09.939Z,23.05
2018-06-29T06:57:10.089Z,23.19
2018-06-29T06:58:10.247Z,23.32
2018-06-29T06:59:10.406Z,23.47
2018-06-29T07:00:10.566Z,23.35
2018-06-29T07:01:10.728Z,23.31
2018-06-29T07:02:10.883Z,23.42
2018-06-29T07:03:11.044Z,23.46
2018-06-29T07:04:11.204Z,23.53
2018-06-29T07:05:11.361Z,23.57
2018-06-29T07:06:11.519Z,23.50
2018-06-29T07:07:11.680Z,23.47
2018-06-29T07:08:11.839Z,23.46
2018-06-29T07:09:12.002Z,23.58
2018-06-29T07:10:12.162Z,23.65
2018-06-29T07:11:12.321Z,23.67
2018-06-29T07:12:12.480Z,23.67
2018-06-29T07:13:12.644Z,23.70
2018-06-29T07:14:12.802Z,23.79
2018-06-29T07:15:12.962Z,23.79
2018-06-29T07:16:13.121Z,23.75
2018-06-29T07:17:13.280Z,23.80
2018-06-29T07:18:13.478Z,23.68
2018-06-29T07:19:13.599Z,23.68
2018-06-29T07:20:13.762Z,23.62
2018-06-29T07:21:13.918Z,23.61
2018-06-29T07:22:14.082Z,23.38
2018-06-29T07:23:14.238Z,23.34
2018-06-29T07:24:14.401Z,23.50
2018-06-29T07:25:14.560Z,23.70
2018-06-29T07:26:14.722Z,23.65
2018-06-29T07:27:14.888Z,23.82
2018-06-29T07:28:15.044Z,23.83
2018-06-29T07:29:15.200Z,23.75
2018-06-29T07:30:15.367Z,23.86
2018-06-29T07:31:15.523Z,23.98
2018-06-29T07:32:15.688Z,23.95
2018-06-29T07:33:15.847Z,23.80
2018-06-29T07:34:16.010Z,23.79
2018-06-29T07:35:16.170Z,23.82
2018-06-29T07:36:16.331Z,23.80
2018-06-29T07:37:16.492Z,23.85
2018-06-29T07:38:16.651Z,23.94
2018-06-29T07:39:16.809Z,24.07
2018-06-29T07:40:16.971Z,24.14
2018-06-29T07:41:17.131Z,24.05
2018-06-29T07:42:17.291Z,24.16
2018-06-29T07:43:17.453Z,24.02
2018-06-29T07:44:17.612Z,24.04
2018-06-29T07:45:17.768Z,24.16
2018-06-29T07:46:17.931Z,24.13
2018-06-29T07:47:18.090Z,24.19
2018-06-29T07:48:18.247Z,24.19
2018-06-29T07:49:18.412Z,24.19
2018-06-29T07:50:18.566Z,24.35
2018-06-29T07:51:18.727Z,24.38
2018-06-29T07:52:18.887Z,24.56
2018-06-29T07:53:19.045Z,24.45
2018-06-29T07:54:19.207Z,24.29
2018-06-29T07:55:19.363Z,24.13
2018-06-29T07:56:19.592Z,24.19
2018-06-29T07:57:19.685Z,24.13
2018-06-29T07:58:19.970Z,24.22
2018-06-29T07:59:20.007Z,24.23
2018-06-29T08:00:20.166Z,24.32
2018-06-29T08:01:20.327Z,24.39
2018-06-29T08:02:20.485Z,24.35
2018-06-29T08:03:20.649Z,24.47
2018-06-29T08:04:20.811Z,24.67
2018-06-29T08:05:20.968Z,24.77
2018-06-29T08:06:21.131Z,24.85
2018-06-29T08:07:21.289Z,24.79
2018-06-29T08:08:21.449Z,24.87
2018-06-29T08:09:21.610Z,24.87
2018-06-29T08:10:21.771Z,24.88
2018-06-29T08:11:21.932Z,24.85
2018-06-29T08:12:22.090Z,24.85
2018-06-29T08:13:22.252Z,24.95
2018-06-29T08:14:22.410Z,24.91
2018-06-29T08:15:22.572Z,24.97
2018-06-29T08:16:22.734Z,25.07
2018-06-29T08:17:22.897Z,24.91
2018-06-29T08:18:23.058Z,24.98
2018-06-29T08:19:23.218Z,24.97
2018-06-29T08:20:23.378Z,25.05
2018-06-29T08:21:23.538Z,24.97
2018-06-29T08:22:23.701Z,25.00
2018-06-29T08:23:23.860Z,24.92
2018-06-29T08:24:24.037Z,25.07
2018-06-29T08:25:24.182Z,25.20
2018-06-29T08:26:24.343Z,25.27
2018-06-29T08:27:24.505Z,25.32
2018-06-29T08:28:24.668Z,25.35
2018-06-29T08:29:24.824Z,25.44
2018-06-29T08:30:24.991Z,25.46
2018-06-29T08:31:25.148Z,25.42
2018-06-29T08:32:25.310Z,25.32
2018-06-29T08:33:25.472Z,25.35
2018-06-29T08:34:25.637Z,25.31
2018-06-29T08:35:25.791Z,25.32
2018-06-29T08:36:25.954Z,25.56
2018-06-29T08:37:26.116Z,25.69
2018-06-29T08:38:26.274Z,25.82
2018-06-29T08:39:26.441Z,25.69
2018-06-29T08:40:26.595Z,25.74
2018-06-29T08:41:26.762Z,25.87
2018-06-29T08:42:26.918Z,25.79
2018-06-29T08:43:27.079Z,25.89
2018-06-29T08:44:27.241Z,26.01
2018-06-29T08:45:27.403Z,26.04
2018-06-29T08:46:27.560Z,26.17
2018-06-29T08:47:27.721Z,25.98
2018-06-29T08:48:27.884Z,25.98
2018-06-29T08:49:28.090Z,26.05
2018-06-29T08:50:28.208Z,26.18
2018-06-29T08:51:28.368Z,26.04
2018-06-29T08:52:28.534Z,26.08
2018-06-29T08:53:28.692Z,26.02
2018-06-29T08:54:28.859Z,25.98
2018-06-29T08:55:29.016Z,25.86
2018-06-29T08:56:29.176Z,25.87
2018-06-29T08:57:29.337Z,25.82
2018-06-29T08:58:29.506Z,25.90
2018-06-29T08:59:29.661Z,26.02
2018-06-29T09:00:29.822Z,26.08
2018-06-29T09:01:29.982Z,26.11
2018-06-29T09:02:30.142Z,26.08
2018-06-29T09:03:30.307Z,25.84
2018-06-29T09:04:30.466Z,26.06
2018-06-29T09:05:30.627Z,26.08
2018-06-29T09:06:30.787Z,26.17
2018-06-29T09:07:30.945Z,26.28
2018-06-29T09:08:31.110Z,26.11
2018-06-29T09:09:31.271Z,26.05
2018-06-29T09:10:31.430Z,26.27
2018-06-29T09:11:31.592Z,26.37
2018-06-29T09:12:31.756Z,26.58
2018-06-29T09:13:31.916Z,26.65
2018-06-29T09:14:32.074Z,26.68
2018-06-29T09:15:32.239Z,26.61
2018-06-29T09:16:32.400Z,26.65
2018-06-29T09:17:32.564Z,26.35
2018-06-29T09:18:32.724Z,26.21
2018-06-29T09:19:32.887Z,26.20
2018-06-29T09:20:33.046Z,26.05
2018-06-29T09:21:33.207Z,26.18
2018-06-29T09:22:33.369Z,26.32
2018-06-29T09:23:33.529Z,26.36
2018-06-29T09:24:33.697Z,26.24
2018-06-29T09:25:33.856Z,26.24
2018-06-29T09:26:34.019Z,26.49
2018-06-29T09:27:34.178Z,26.18
2018-06-29T09:28:34.341Z,26.09
2018-06-29T09:29:34.502Z,26.37
2018-06-29T09:30:34.667Z,26.37
2018-06-29T09:31:34.824Z,26.50
2018-06-29T09:32:34.987Z,26.54
2018-06-29T09:33:35.156Z,26.54
2018-06-29T09:34:35.310Z,26.46
2018-06-29T09:35:35.471Z,26.52
2018-06-29T09:36:35.633Z,26.44
2018-06-29T09:37:35.802Z,26.36
2018-06-29T09:38:35.952Z,26.39
2018-06-29T09:39:36.114Z,26.50
2018-06-29T09:40:36.276Z,26.64
2018-06-29T09:41:36.436Z,26.77
2018-06-29T09:42:36.641Z,26.79
2018-06-29T09:43:36.759Z,26.86
2018-06-29T09:44:36.920Z,26.87
2018-06-29T09:45:37.080Z,26.89
2018-06-29T09:46:37.242Z,27.13
2018-06-29T09:47:37.404Z,27.01
2018-06-29T09:48:37.567Z,27.06
2018-06-29T09:49:37.729Z,26.87
2018-06-29T09:50:37.905Z,26.95
2018-06-29T09:51:38.069Z,26.86
2018-06-29T09:52:38.229Z,26.94
2018-06-29T09:53:38.391Z,26.91
2018-06-29T09:54:38.557Z,26.79
2018-06-29T09:55:38.720Z,26.92
2018-06-29T09:56:38.882Z,26.95
2018-06-29T09:57:39.043Z,26.94
2018-06-29T09:58:39.207Z,27.11
2018-06-29T09:59:39.380Z,27.11
2018-06-29T10:00:39.602Z,27.19
2018-06-29T10:01:39.693Z,27.21
2018-06-29T10:02:39.857Z,27.28
2018-06-29T10:03:40.029Z,27.24
2018-06-29T10:04:40.179Z,27.14
2018-06-29T10:05:40.343Z,27.19
2018-06-29T10:06:40.504Z,27.23
2018-06-29T10:07:40.666Z,27.09
2018-06-29T10:08:40.828Z,27.21
2018-06-29T10:09:40.993Z,27.10
2018-06-29T10:10:41.156Z,27.21
2018-06-29T10:11:41.318Z,27.32
2018-06-29T10:12:41.478Z,27.42
2018-06-29T10:13:41.643Z,27.13
2018-06-29T10:14:41.803Z,27.21
2018-06-29T10:15:41.967Z,27.31
2018-06-29T10:16:42.125Z,27.46
2018-06-29T10:17:42.288Z,27.59
2018-06-29T10:18:42.453Z,27.86
2018-06-29T10:19:42.764Z,27.99
2018-06-29T10:20:42.776Z,27.80
2018-06-29T10:21:42.936Z,27.85
2018-06-29T10:22:43.104Z,27.88
2018-06-29T10:23:43.264Z,27.74
2018-06-29T10:24:43.429Z,27.94
2018-06-29T10:25:43.589Z,28.03
2018-06-29T10:26:43.752Z,28.03
2018-06-29T10:27:43.921Z,28.09
2018-06-29T10:28:44.079Z,28.22
2018-06-29T10:29:44.243Z,28.31
2018-06-29T10:30:44.409Z,28.44
2018-06-29T10:31:44.567Z,28.50
2018-06-29T10:32:44.730Z,28.33
2018-06-29T10:33:44.894Z,28.44
2018-06-29T10:34:45.057Z,28.32
2018-06-29T10:35:45.218Z,28.40
2018-06-29T10:36:45.454Z,28.26
2018-06-29T10:37:45.544Z,28.19
2018-06-29T10:38:45.746Z,28.29
2018-06-29T10:39:45.870Z,28.07
2018-06-29T10:40:46.033Z,28.13
2018-06-29T10:41:46.197Z,28.32
2018-06-29T10:42:46.358Z,28.48
2018-06-29T10:43:46.527Z,28.60
2018-06-29T10:44:46.724Z,28.81
2018-06-29T10:45:46.848Z,28.96
2018-06-29T10:46:47.010Z,29.01
2018-06-29T10:47:47.175Z,28.95
2018-06-29T10:48:47.341Z,28.93
2018-06-29T10:49:47.504Z,29.08
2018-06-29T10:50:47.665Z,28.91
2018-06-29T10:51:47.830Z,28.75
2018-06-29T10:52:48.067Z,28.62
2018-06-29T10:53:48.163Z,28.69
2018-06-29T10:54:48.321Z,28.85
2018-06-29T10:55:48.487Z,28.90
2018-06-29T10:56:48.649Z,28.95
2018-06-29T10:57:48.811Z,28.97
2018-06-29T10:58:48.976Z,29.08
2018-06-29T10:59:49.142Z,29.03
2018-06-29T11:00:49.303Z,28.75
2018-06-29T11:01:49.467Z,28.78
2018-06-29T11:02:49.629Z,29.06
2018-06-29T11:03:49.796Z,29.37
2018-06-29T11:04:49.957Z,29.44
2018-06-29T11:05:50.121Z,29.57
2018-06-29T11:06:50.284Z,29.56
2018-06-29T11:07:50.450Z,29.38
2018-06-29T11:08:50.612Z,29.41
2018-06-29T11:09:50.777Z,29.43
2018-06-29T11:10:50.942Z,29.22
2018-06-29T11:11:51.103Z,29.20
2018-06-29T11:12:51.267Z,29.08
2018-06-29T11:13:51.431Z,28.58
2018-06-29T11:14:51.597Z,28.62
2018-06-29T11:15:51.760Z,28.54
2018-06-29T11:16:51.928Z,28.40
2018-06-29T11:17:52.091Z,28.35
2018-06-29T11:18:52.254Z,28.28
2018-06-29T11:19:52.416Z,28.33
2018-06-29T11:20:52.578Z,28.51
2018-06-29T11:21:52.740Z,28.58
2018-06-29T11:22:52.902Z,28.66
2018-06-29T11:23:53.068Z,28.69
2018-06-29T11:24:53.231Z,28.77
2018-06-29T11:25:53.394Z,28.80
2018-06-29T11:26:53.561Z,28.75
2018-06-29T11:27:53.723Z,28.82
2018-06-29T11:28:53.888Z,28.77
2018-06-29T11:29:54.050Z,28.70
2018-06-29T11:30:54.217Z,28.75
2018-06-29T11:31:54.383Z,28.78
2018-06-29T11:32:54.545Z,29.08
2018-06-29T11:33:54.706Z,28.96
2018-06-29T11:34:54.866Z,28.90
2018-06-29T11:35:55.031Z,28.90
2018-06-29T11:36:55.193Z,28.95
2018-06-29T11:37:55.360Z,28.91
2018-06-29T11:38:55.523Z,29.10
2018-06-29T11:39:55.688Z,29.08
2018-06-29T11:40:55.851Z,29.26
2018-06-29T11:41:56.019Z,29.29
2018-06-29T11:42:56.177Z,29.65
2018-06-29T11:43:56.340Z,29.77
2018-06-29T11:44:56.505Z,29.90
2018-06-29T11:45:56.667Z,29.94
2018-06-29T11:46:56.833Z,29.81
2018-06-29T11:47:56.997Z,29.66
2018-06-29T11:48:57.161Z,29.65
2018-06-29T11:49:57.331Z,29.55
2018-06-29T11:50:57.489Z,29.45
2018-06-29T11:51:57.653Z,29.38
2018-06-29T11:52:57.817Z,29.52
2018-06-29T11:53:57.982Z,29.68
2018-06-29T11:54:58.144Z,29.89
2018-06-29T11:55:58.308Z,29.82
2018-06-29T11:56:58.472Z,29.94
2018-06-29T11:57:58.638Z,29.82
2018-06-29T11:58:58.801Z,29.75
2018-06-29T11:59:58.974Z,29.59
2018-06-29T12:00:59.128Z,29.57
2018-06-29T12:01:59.290Z,29.56
2018-06-29T12:02:59.458Z,29.75
2018-06-29T12:03:59.620Z,29.77
2018-06-29T12:04:59.782Z,29.94
2018-06-29T12:05:59.947Z,30.12
2018-06-29T12:07:00.117Z,30.11
2018-06-29T12:08:00.276Z,30.27
2018-06-29T12:09:00.450Z,30.12
2018-06-29T12:10:00.608Z,30.24
2018-06-29T12:11:00.775Z,30.33
2018-06-29T12:12:00.940Z,30.26
2018-06-29T12:13:01.104Z,30.45
2018-06-29T12:14:01.270Z,30.46
2018-06-29T12:15:01.434Z,30.29
2018-06-29T12:16:01.599Z,30.16
2018-06-29T12:17:01.765Z,29.87
2018-06-29T12:18:01.928Z,29.84
2018-06-29T12:19:02.092Z,29.81
2018-06-29T12:20:02.260Z,29.97
2018-06-29T12:21:02.425Z,29.90
2018-06-29T12:22:02.586Z,29.52
2018-06-29T12:23:02.751Z,29.57
2018-06-29T12:24:02.916Z,29.74
2018-06-29T12:25:03.079Z,29.90
2018-06-29T12:26:03.246Z,29.99
2018-06-29T12:27:03.411Z,29.94
2018-06-29T12:28:03.636Z,29.93
2018-06-29T12:29:03.742Z,29.97
2018-06-29T12:30:03.908Z,30.21
2018-06-29T12:31:04.075Z,30.00
2018-06-29T12:32:04.240Z,29.86
2018-06-29T12:33:04.405Z,29.81
2018-06-29T12:34:04.574Z,29.82
2018-06-29T12:35:04.740Z,30.11
2018-06-29T12:36:04.910Z,30.15
2018-06-29T12:37:05.076Z,29.96
2018-06-29T12:38:05.281Z,30.11
2018-06-29T12:39:05.404Z,30.34
2018-06-29T12:40:05.569Z,30.27
2018-06-29T12:41:05.731Z,29.82
2018-06-29T12:42:05.901Z,29.71
2018-06-29T12:43:06.065Z,29.55
2018-06-29T12:44:06.230Z,29.53
2018-06-29T12:45:06.396Z,29.79
2018-06-29T12:46:06.578Z,30.24
2018-06-29T12:47:06.729Z,30.11
2018-06-29T12:48:06.894Z,30.09
2018-06-29T12:49:07.060Z,30.11
2018-06-29T12:50:07.221Z,30.34
2018-06-29T12:51:07.389Z,30.49
2018-06-29T12:52:07.555Z,30.31
2018-06-29T12:53:07.725Z,30.08
2018-06-29T12:54:07.884Z,30.03